sensor_id;sensor_type;location;lat;lon;timestamp;P1;durP1;ratioP1;P2;durP2;ratioP2
44130;SDS011;29792;48.726;9.248;2023-04-25T00:00:14;3.10;;;2.28;;
44130;SDS011;29792;48.726;9.248;2023-04-25T00:02:39;3.72;;;2.55;;
44130;SDS011;29792;48.726;9.248;2023-04-25T00:05:05;2.55;;;2.20;;
44130;SDS011;29792;48.726;9.248;2023-04-25T00:07:30;2.65;;;1.90;;
44130;SDS011;29792;48.726;9.248;2023-04-25T00:09:57;3.08;;;1.70;;
44130;SDS011;29792;48.726;9.248;2023-04-25T00:12:22;4.18;;;2.55;;
44130;SDS011;29792;48.726;9.248;2023-04-25T00:14:47;2.53;;;1.65;;
44130;SDS011;29792;48.726;9.248;2023-04-25T00:17:14;3.45;;;2.35;;
44130;SDS011;29792;48.726;9.248;2023-04-25T00:19:41;3.70;;;2.28;;
44130;SDS011;29792;48.726;9.248;2023-04-25T00:22:06;2.80;;;1.90;;
44130;SDS011;29792;48.726;9.248;2023-04-25T00:24:32;3.53;;;2.00;;
44130;SDS011;29792;48.726;9.248;2023-04-25T00:26:57;2.72;;;2.22;;
44130;SDS011;29792;48.726;9.248;2023-04-25T00:29:22;2.40;;;1.77;;
44130;SDS011;29792;48.726;9.248;2023-04-25T00:31:48;5.97;;;2.47;;
44130;SDS011;29792;48.726;9.248;2023-04-25T00:34:13;2.40;;;2.20;;
44130;SDS011;29792;48.726;9.248;2023-04-25T00:36:38;2.80;;;2.17;;
44130;SDS011;29792;48.726;9.248;2023-04-25T00:39:03;3.03;;;2.35;;
44130;SDS011;29792;48.726;9.248;2023-04-25T00:41:29;2.03;;;1.83;;
44130;SDS011;29792;48.726;9.248;2023-04-25T00:43:55;2.33;;;1.90;;
44130;SDS011;29792;48.726;9.248;2023-04-25T00:46:21;3.45;;;2.40;;
44130;SDS011;29792;48.726;9.248;2023-04-25T00:48:46;3.22;;;2.78;;
44130;SDS011;29792;48.726;9.248;2023-04-25T00:51:16;2.78;;;2.20;;
44130;SDS011;29792;48.726;9.248;2023-04-25T00:53:44;4.20;;;2.67;;
44130;SDS011;29792;48.726;9.248;2023-04-25T00:56:10;2.75;;;2.17;;
44130;SDS011;29792;48.726;9.248;2023-04-25T00:58:35;2.58;;;1.55;;
44130;SDS011;29792;48.726;9.248;2023-04-25T01:01:02;4.47;;;3.00;;
44130;SDS011;29792;48.726;9.248;2023-04-25T01:03:27;2.25;;;2.05;;
44130;SDS011;29792;48.726;9.248;2023-04-25T01:05:53;2.35;;;2.15;;
44130;SDS011;29792;48.726;9.248;2023-04-25T01:08:19;2.42;;;1.70;;
44130;SDS011;29792;48.726;9.248;2023-04-25T01:10:48;3.03;;;2.20;;
44130;SDS011;29792;48.726;9.248;2023-04-25T01:13:13;3.58;;;1.77;;
44130;SDS011;29792;48.726;9.248;2023-04-25T01:15:39;4.25;;;1.88;;
44130;SDS011;29792;48.726;9.248;2023-04-25T01:18:05;3.40;;;1.90;;
44130;SDS011;29792;48.726;9.248;2023-04-25T01:20:31;3.72;;;2.25;;
44130;SDS011;29792;48.726;9.248;2023-04-25T01:22:58;2.50;;;2.30;;
44130;SDS011;29792;48.726;9.248;2023-04-25T01:25:23;3.78;;;2.10;;
44130;SDS011;29792;48.726;9.248;2023-04-25T01:27:49;2.60;;;2.40;;
44130;SDS011;29792;48.726;9.248;2023-04-25T01:30:14;4.18;;;2.55;;
44130;SDS011;29792;48.726;9.248;2023-04-25T01:32:40;4.82;;;2.22;;
44130;SDS011;29792;48.726;9.248;2023-04-25T01:35:07;2.70;;;2.50;;
44130;SDS011;29792;48.726;9.248;2023-04-25T01:37:44;2.35;;;2.20;;
44130;SDS011;29792;48.726;9.248;2023-04-25T01:40:10;3.20;;;2.90;;
44130;SDS011;29792;48.726;9.248;2023-04-25T01:42:38;2.97;;;2.50;;
44130;SDS011;29792;48.726;9.248;2023-04-25T01:45:05;3.33;;;2.03;;
44130;SDS011;29792;48.726;9.248;2023-04-25T01:47:32;3.50;;;2.22;;
44130;SDS011;29792;48.726;9.248;2023-04-25T01:49:57;3.17;;;2.67;;
44130;SDS011;29792;48.726;9.248;2023-04-25T01:52:23;3.83;;;2.10;;
44130;SDS011;29792;48.726;9.248;2023-04-25T01:54:48;4.15;;;2.72;;
44130;SDS011;29792;48.726;9.248;2023-04-25T01:57:14;4.70;;;3.72;;
44130;SDS011;29792;48.726;9.248;2023-04-25T01:59:39;2.65;;;1.83;;
44130;SDS011;29792;48.726;9.248;2023-04-25T02:02:05;3.72;;;2.95;;
44130;SDS011;29792;48.726;9.248;2023-04-25T02:04:31;2.80;;;2.10;;
44130;SDS011;29792;48.726;9.248;2023-04-25T02:06:56;2.63;;;2.42;;
44130;SDS011;29792;48.726;9.248;2023-04-25T02:09:21;2.47;;;1.92;;
44130;SDS011;29792;48.726;9.248;2023-04-25T02:11:47;3.10;;;1.63;;
44130;SDS011;29792;48.726;9.248;2023-04-25T02:14:12;3.00;;;1.58;;
44130;SDS011;29792;48.726;9.248;2023-04-25T02:16:38;1.75;;;1.35;;
44130;SDS011;29792;48.726;9.248;2023-04-25T02:19:03;1.60;;;1.50;;
44130;SDS011;29792;48.726;9.248;2023-04-25T02:21:29;1.60;;;1.17;;
44130;SDS011;29792;48.726;9.248;2023-04-25T02:23:55;4.13;;;2.10;;
44130;SDS011;29792;48.726;9.248;2023-04-25T02:26:20;3.42;;;2.15;;
44130;SDS011;29792;48.726;9.248;2023-04-25T02:28:46;2.80;;;2.03;;
44130;SDS011;29792;48.726;9.248;2023-04-25T02:31:11;1.42;;;1.33;;
44130;SDS011;29792;48.726;9.248;2023-04-25T02:33:36;1.77;;;1.55;;
44130;SDS011;29792;48.726;9.248;2023-04-25T02:36:02;4.43;;;1.88;;
44130;SDS011;29792;48.726;9.248;2023-04-25T02:38:28;2.97;;;1.60;;
44130;SDS011;29792;48.726;9.248;2023-04-25T02:40:53;2.53;;;1.73;;
44130;SDS011;29792;48.726;9.248;2023-04-25T02:43:18;1.75;;;1.65;;
44130;SDS011;29792;48.726;9.248;2023-04-25T02:45:44;3.35;;;1.60;;
44130;SDS011;29792;48.726;9.248;2023-04-25T02:48:09;2.72;;;1.95;;
44130;SDS011;29792;48.726;9.248;2023-04-25T02:50:34;2.45;;;1.60;;
44130;SDS011;29792;48.726;9.248;2023-04-25T02:53:00;1.88;;;1.30;;
44130;SDS011;29792;48.726;9.248;2023-04-25T02:55:25;2.17;;;1.52;;
44130;SDS011;29792;48.726;9.248;2023-04-25T02:57:51;2.28;;;1.58;;
44130;SDS011;29792;48.726;9.248;2023-04-25T03:00:16;1.30;;;1.20;;
44130;SDS011;29792;48.726;9.248;2023-04-25T03:02:41;2.25;;;1.08;;
44130;SDS011;29792;48.726;9.248;2023-04-25T03:05:07;3.55;;;1.88;;
44130;SDS011;29792;48.726;9.248;2023-04-25T03:07:32;2.72;;;1.75;;
44130;SDS011;29792;48.726;9.248;2023-04-25T03:09:57;3.95;;;1.80;;
44130;SDS011;29792;48.726;9.248;2023-04-25T03:12:22;3.85;;;2.33;;
44130;SDS011;29792;48.726;9.248;2023-04-25T03:14:48;2.92;;;2.53;;
44130;SDS011;29792;48.726;9.248;2023-04-25T03:17:13;3.75;;;1.92;;
44130;SDS011;29792;48.726;9.248;2023-04-25T03:19:38;4.13;;;1.77;;
44130;SDS011;29792;48.726;9.248;2023-04-25T03:22:04;4.40;;;2.45;;
44130;SDS011;29792;48.726;9.248;2023-04-25T03:24:29;2.00;;;1.75;;
44130;SDS011;29792;48.726;9.248;2023-04-25T03:26:54;3.13;;;1.38;;
44130;SDS011;29792;48.726;9.248;2023-04-25T03:29:19;3.10;;;1.95;;
44130;SDS011;29792;48.726;9.248;2023-04-25T03:31:49;2.65;;;1.85;;
44130;SDS011;29792;48.726;9.248;2023-04-25T03:34:14;2.03;;;1.65;;
44130;SDS011;29792;48.726;9.248;2023-04-25T03:36:40;2.63;;;1.98;;
44130;SDS011;29792;48.726;9.248;2023-04-25T03:39:05;1.52;;;1.30;;
44130;SDS011;29792;48.726;9.248;2023-04-25T03:41:31;2.88;;;1.70;;
44130;SDS011;29792;48.726;9.248;2023-04-25T03:43:56;4.70;;;1.95;;
44130;SDS011;29792;48.726;9.248;2023-04-25T03:46:21;4.07;;;2.42;;
44130;SDS011;29792;48.726;9.248;2023-04-25T03:48:47;2.42;;;1.88;;
44130;SDS011;29792;48.726;9.248;2023-04-25T03:51:12;5.40;;;2.22;;
44130;SDS011;29792;48.726;9.248;2023-04-25T03:53:37;2.17;;;1.98;;
44130;SDS011;29792;48.726;9.248;2023-04-25T03:56:02;3.42;;;1.95;;
44130;SDS011;29792;48.726;9.248;2023-04-25T03:58:28;2.53;;;2.10;;
44130;SDS011;29792;48.726;9.248;2023-04-25T04:00:53;3.35;;;2.25;;
44130;SDS011;29792;48.726;9.248;2023-04-25T04:03:18;2.28;;;1.95;;
44130;SDS011;29792;48.726;9.248;2023-04-25T04:05:43;3.75;;;2.13;;
44130;SDS011;29792;48.726;9.248;2023-04-25T04:08:10;5.68;;;2.80;;
44130;SDS011;29792;48.726;9.248;2023-04-25T04:10:35;2.67;;;2.00;;
44130;SDS011;29792;48.726;9.248;2023-04-25T04:13:00;2.45;;;2.10;;
44130;SDS011;29792;48.726;9.248;2023-04-25T04:15:25;3.22;;;2.03;;
44130;SDS011;29792;48.726;9.248;2023-04-25T04:17:51;3.80;;;1.55;;
44130;SDS011;29792;48.726;9.248;2023-04-25T04:20:16;3.83;;;2.20;;
44130;SDS011;29792;48.726;9.248;2023-04-25T04:22:41;3.28;;;2.40;;
44130;SDS011;29792;48.726;9.248;2023-04-25T04:25:06;3.30;;;2.10;;
44130;SDS011;29792;48.726;9.248;2023-04-25T04:27:32;2.97;;;1.60;;
44130;SDS011;29792;48.726;9.248;2023-04-25T04:29:57;4.57;;;2.55;;
44130;SDS011;29792;48.726;9.248;2023-04-25T04:32:23;2.50;;;2.22;;
44130;SDS011;29792;48.726;9.248;2023-04-25T04:34:48;2.53;;;2.10;;
44130;SDS011;29792;48.726;9.248;2023-04-25T04:37:14;5.22;;;2.78;;
44130;SDS011;29792;48.726;9.248;2023-04-25T04:39:39;3.28;;;2.45;;
44130;SDS011;29792;48.726;9.248;2023-04-25T04:42:05;4.50;;;2.55;;
44130;SDS011;29792;48.726;9.248;2023-04-25T04:44:31;2.92;;;2.63;;
44130;SDS011;29792;48.726;9.248;2023-04-25T04:46:59;8.30;;;2.70;;
44130;SDS011;29792;48.726;9.248;2023-04-25T04:49:24;7.15;;;2.55;;
44130;SDS011;29792;48.726;9.248;2023-04-25T04:51:49;3.28;;;2.83;;
44130;SDS011;29792;48.726;9.248;2023-04-25T04:54:15;7.72;;;2.35;;
44130;SDS011;29792;48.726;9.248;2023-04-25T04:56:40;7.47;;;2.65;;
44130;SDS011;29792;48.726;9.248;2023-04-25T04:59:06;2.42;;;2.22;;
44130;SDS011;29792;48.726;9.248;2023-04-25T05:01:32;2.67;;;2.33;;
44130;SDS011;29792;48.726;9.248;2023-04-25T05:03:57;2.88;;;2.20;;
44130;SDS011;29792;48.726;9.248;2023-04-25T05:06:25;2.22;;;2.03;;
44130;SDS011;29792;48.726;9.248;2023-04-25T05:08:51;3.03;;;2.50;;
44130;SDS011;29792;48.726;9.248;2023-04-25T05:11:17;3.80;;;2.38;;
44130;SDS011;29792;48.726;9.248;2023-04-25T05:13:42;3.15;;;2.72;;
44130;SDS011;29792;48.726;9.248;2023-04-25T05:16:08;3.78;;;2.40;;
44130;SDS011;29792;48.726;9.248;2023-04-25T05:18:33;2.88;;;2.30;;
44130;SDS011;29792;48.726;9.248;2023-04-25T05:20:58;2.33;;;2.13;;
44130;SDS011;29792;48.726;9.248;2023-04-25T05:23:24;4.80;;;2.95;;
44130;SDS011;29792;48.726;9.248;2023-04-25T05:25:49;3.10;;;2.17;;
44130;SDS011;29792;48.726;9.248;2023-04-25T05:28:14;4.18;;;1.85;;
44130;SDS011;29792;48.726;9.248;2023-04-25T05:30:39;4.57;;;2.67;;
44130;SDS011;29792;48.726;9.248;2023-04-25T05:33:05;2.67;;;1.88;;
44130;SDS011;29792;48.726;9.248;2023-04-25T05:35:30;4.35;;;2.78;;
44130;SDS011;29792;48.726;9.248;2023-04-25T05:37:55;4.53;;;2.97;;
44130;SDS011;29792;48.726;9.248;2023-04-25T05:40:21;5.53;;;2.58;;
44130;SDS011;29792;48.726;9.248;2023-04-25T05:42:46;3.22;;;2.63;;
44130;SDS011;29792;48.726;9.248;2023-04-25T05:45:11;4.57;;;3.17;;
44130;SDS011;29792;48.726;9.248;2023-04-25T05:47:37;3.17;;;2.45;;
44130;SDS011;29792;48.726;9.248;2023-04-25T05:50:02;5.50;;;2.97;;
44130;SDS011;29792;48.726;9.248;2023-04-25T05:52:27;4.05;;;2.67;;
44130;SDS011;29792;48.726;9.248;2023-04-25T05:54:53;3.58;;;2.22;;
44130;SDS011;29792;48.726;9.248;2023-04-25T05:57:24;4.80;;;2.97;;
44130;SDS011;29792;48.726;9.248;2023-04-25T05:59:51;4.95;;;2.63;;
44130;SDS011;29792;48.726;9.248;2023-04-25T06:02:17;3.80;;;2.80;;
44130;SDS011;29792;48.726;9.248;2023-04-25T06:04:43;2.80;;;2.53;;
44130;SDS011;29792;48.726;9.248;2023-04-25T06:07:08;3.80;;;2.63;;
44130;SDS011;29792;48.726;9.248;2023-04-25T06:09:33;5.93;;;3.20;;
44130;SDS011;29792;48.726;9.248;2023-04-25T06:11:59;4.00;;;3.00;;
44130;SDS011;29792;48.726;9.248;2023-04-25T06:14:24;4.03;;;2.67;;
44130;SDS011;29792;48.726;9.248;2023-04-25T06:16:50;3.20;;;2.75;;
44130;SDS011;29792;48.726;9.248;2023-04-25T06:19:15;3.45;;;2.97;;
44130;SDS011;29792;48.726;9.248;2023-04-25T06:21:41;4.40;;;2.83;;
44130;SDS011;29792;48.726;9.248;2023-04-25T06:24:08;3.13;;;2.83;;
44130;SDS011;29792;48.726;9.248;2023-04-25T06:26:33;4.35;;;3.35;;
44130;SDS011;29792;48.726;9.248;2023-04-25T06:28:58;2.67;;;2.42;;
44130;SDS011;29792;48.726;9.248;2023-04-25T06:31:24;2.85;;;2.47;;
44130;SDS011;29792;48.726;9.248;2023-04-25T06:33:50;4.82;;;3.35;;
44130;SDS011;29792;48.726;9.248;2023-04-25T06:36:15;4.10;;;2.35;;
44130;SDS011;29792;48.726;9.248;2023-04-25T06:38:40;3.95;;;2.63;;
44130;SDS011;29792;48.726;9.248;2023-04-25T06:41:05;2.03;;;1.83;;
44130;SDS011;29792;48.726;9.248;2023-04-25T06:43:31;2.15;;;1.90;;
44130;SDS011;29792;48.726;9.248;2023-04-25T06:45:58;2.97;;;1.67;;
44130;SDS011;29792;48.726;9.248;2023-04-25T06:48:24;8.73;;;2.85;;
44130;SDS011;29792;48.726;9.248;2023-04-25T06:50:50;6.80;;;2.63;;
44130;SDS011;29792;48.726;9.248;2023-04-25T06:53:15;2.88;;;2.60;;
44130;SDS011;29792;48.726;9.248;2023-04-25T06:55:40;4.43;;;2.83;;
44130;SDS011;29792;48.726;9.248;2023-04-25T06:58:06;5.15;;;2.53;;
44130;SDS011;29792;48.726;9.248;2023-04-25T07:00:32;3.60;;;2.90;;
44130;SDS011;29792;48.726;9.248;2023-04-25T07:02:58;2.83;;;2.60;;
44130;SDS011;29792;48.726;9.248;2023-04-25T07:05:23;2.70;;;2.50;;
44130;SDS011;29792;48.726;9.248;2023-04-25T07:07:49;3.47;;;3.03;;
44130;SDS011;29792;48.726;9.248;2023-04-25T07:10:14;3.00;;;2.60;;
44130;SDS011;29792;48.726;9.248;2023-04-25T07:12:40;3.40;;;2.80;;
44130;SDS011;29792;48.726;9.248;2023-04-25T07:15:05;3.08;;;2.70;;
44130;SDS011;29792;48.726;9.248;2023-04-25T07:17:33;3.67;;;2.50;;
44130;SDS011;29792;48.726;9.248;2023-04-25T07:19:58;4.45;;;3.25;;
44130;SDS011;29792;48.726;9.248;2023-04-25T07:22:24;3.60;;;3.03;;
44130;SDS011;29792;48.726;9.248;2023-04-25T07:24:51;4.95;;;2.88;;
44130;SDS011;29792;48.726;9.248;2023-04-25T07:27:18;4.45;;;3.30;;
44130;SDS011;29792;48.726;9.248;2023-04-25T07:29:43;3.00;;;2.67;;
44130;SDS011;29792;48.726;9.248;2023-04-25T07:32:09;3.58;;;2.60;;
44130;SDS011;29792;48.726;9.248;2023-04-25T07:34:36;2.85;;;2.33;;
44130;SDS011;29792;48.726;9.248;2023-04-25T07:37:03;4.90;;;2.60;;
44130;SDS011;29792;48.726;9.248;2023-04-25T07:39:29;3.42;;;3.13;;
44130;SDS011;29792;48.726;9.248;2023-04-25T07:41:54;4.15;;;2.95;;
44130;SDS011;29792;48.726;9.248;2023-04-25T07:44:19;3.75;;;3.03;;
44130;SDS011;29792;48.726;9.248;2023-04-25T07:46:45;4.43;;;3.85;;
44130;SDS011;29792;48.726;9.248;2023-04-25T07:49:10;3.03;;;2.80;;
44130;SDS011;29792;48.726;9.248;2023-04-25T07:51:35;5.32;;;3.22;;
44130;SDS011;29792;48.726;9.248;2023-04-25T07:54:00;3.75;;;3.38;;
44130;SDS011;29792;48.726;9.248;2023-04-25T07:56:26;5.68;;;3.90;;
44130;SDS011;29792;48.726;9.248;2023-04-25T07:58:51;4.28;;;3.00;;
44130;SDS011;29792;48.726;9.248;2023-04-25T08:01:16;4.90;;;3.40;;
44130;SDS011;29792;48.726;9.248;2023-04-25T08:03:41;4.90;;;4.15;;
44130;SDS011;29792;48.726;9.248;2023-04-25T08:06:07;5.13;;;3.70;;
44130;SDS011;29792;48.726;9.248;2023-04-25T08:08:32;4.03;;;3.30;;
44130;SDS011;29792;48.726;9.248;2023-04-25T08:10:57;4.95;;;3.65;;
44130;SDS011;29792;48.726;9.248;2023-04-25T08:13:22;5.53;;;3.85;;
44130;SDS011;29792;48.726;9.248;2023-04-25T08:15:48;5.15;;;3.67;;
44130;SDS011;29792;48.726;9.248;2023-04-25T08:18:13;4.90;;;3.17;;
44130;SDS011;29792;48.726;9.248;2023-04-25T08:20:38;5.85;;;4.20;;
44130;SDS011;29792;48.726;9.248;2023-04-25T08:23:04;6.15;;;4.50;;
44130;SDS011;29792;48.726;9.248;2023-04-25T08:25:29;7.95;;;4.18;;
44130;SDS011;29792;48.726;9.248;2023-04-25T08:27:54;4.38;;;3.08;;
44130;SDS011;29792;48.726;9.248;2023-04-25T08:30:20;4.10;;;3.40;;
44130;SDS011;29792;48.726;9.248;2023-04-25T08:32:46;5.70;;;3.80;;
44130;SDS011;29792;48.726;9.248;2023-04-25T08:35:11;5.05;;;3.45;;
44130;SDS011;29792;48.726;9.248;2023-04-25T08:37:36;4.25;;;3.85;;
44130;SDS011;29792;48.726;9.248;2023-04-25T08:40:03;5.60;;;4.90;;
44130;SDS011;29792;48.726;9.248;2023-04-25T08:42:32;6.18;;;3.85;;
44130;SDS011;29792;48.726;9.248;2023-04-25T08:44:59;5.18;;;4.45;;
44130;SDS011;29792;48.726;9.248;2023-04-25T08:47:26;4.57;;;3.85;;
44130;SDS011;29792;48.726;9.248;2023-04-25T08:49:53;4.55;;;4.10;;
44130;SDS011;29792;48.726;9.248;2023-04-25T08:52:21;5.88;;;4.93;;
44130;SDS011;29792;48.726;9.248;2023-04-25T08:54:52;7.18;;;4.68;;
44130;SDS011;29792;48.726;9.248;2023-04-25T08:57:19;5.00;;;4.13;;
44130;SDS011;29792;48.726;9.248;2023-04-25T08:59:45;5.07;;;4.55;;
44130;SDS011;29792;48.726;9.248;2023-04-25T09:02:12;6.03;;;4.82;;
44130;SDS011;29792;48.726;9.248;2023-04-25T09:04:43;6.20;;;4.03;;
44130;SDS011;29792;48.726;9.248;2023-04-25T09:07:09;6.30;;;5.18;;
44130;SDS011;29792;48.726;9.248;2023-04-25T09:09:34;7.93;;;4.43;;
44130;SDS011;29792;48.726;9.248;2023-04-25T09:12:00;8.25;;;5.20;;
44130;SDS011;29792;48.726;9.248;2023-04-25T09:14:26;6.75;;;4.97;;
44130;SDS011;29792;48.726;9.248;2023-04-25T09:19:21;6.18;;;4.80;;
44130;SDS011;29792;48.726;9.248;2023-04-25T09:21:51;5.32;;;4.78;;
44130;SDS011;29792;48.726;9.248;2023-04-25T09:24:37;6.63;;;4.20;;
44130;SDS011;29792;48.726;9.248;2023-04-25T09:27:12;6.35;;;4.65;;
44130;SDS011;29792;48.726;9.248;2023-04-25T09:29:42;5.03;;;4.50;;
44130;SDS011;29792;48.726;9.248;2023-04-25T09:32:12;8.05;;;4.57;;
44130;SDS011;29792;48.726;9.248;2023-04-25T09:34:40;7.57;;;4.13;;
44130;SDS011;29792;48.726;9.248;2023-04-25T09:37:07;6.00;;;3.90;;
44130;SDS011;29792;48.726;9.248;2023-04-25T09:39:34;4.85;;;4.07;;
44130;SDS011;29792;48.726;9.248;2023-04-25T09:41:59;6.10;;;4.30;;
44130;SDS011;29792;48.726;9.248;2023-04-25T09:44:25;7.93;;;5.28;;
44130;SDS011;29792;48.726;9.248;2023-04-25T09:46:50;11.07;;;5.47;;
44130;SDS011;29792;48.726;9.248;2023-04-25T09:49:22;5.68;;;3.65;;
44130;SDS011;29792;48.726;9.248;2023-04-25T09:51:57;6.82;;;4.88;;
44130;SDS011;29792;48.726;9.248;2023-04-25T09:54:24;4.85;;;4.07;;
44130;SDS011;29792;48.726;9.248;2023-04-25T09:56:51;6.38;;;5.25;;
44130;SDS011;29792;48.726;9.248;2023-04-25T09:59:21;9.00;;;4.18;;
44130;SDS011;29792;48.726;9.248;2023-04-25T10:01:50;4.15;;;3.45;;
44130;SDS011;29792;48.726;9.248;2023-04-25T10:04:18;3.75;;;3.42;;
44130;SDS011;29792;48.726;9.248;2023-04-25T10:06:45;6.13;;;3.72;;
44130;SDS011;29792;48.726;9.248;2023-04-25T10:09:14;6.80;;;3.25;;
44130;SDS011;29792;48.726;9.248;2023-04-25T10:11:40;4.47;;;2.97;;
44130;SDS011;29792;48.726;9.248;2023-04-25T10:14:05;2.58;;;2.38;;
44130;SDS011;29792;48.726;9.248;2023-04-25T10:16:49;3.17;;;2.63;;
44130;SDS011;29792;48.726;9.248;2023-04-25T10:19:18;2.50;;;2.10;;
44130;SDS011;29792;48.726;9.248;2023-04-25T10:22:07;3.88;;;2.50;;
44130;SDS011;29792;48.726;9.248;2023-04-25T10:24:46;3.13;;;2.42;;
44130;SDS011;29792;48.726;9.248;2023-04-25T10:27:11;3.03;;;2.08;;
44130;SDS011;29792;48.726;9.248;2023-04-25T10:29:37;3.40;;;2.33;;
44130;SDS011;29792;48.726;9.248;2023-04-25T10:32:03;3.22;;;2.15;;
44130;SDS011;29792;48.726;9.248;2023-04-25T10:34:40;2.00;;;1.80;;
44130;SDS011;29792;48.726;9.248;2023-04-25T10:37:10;2.45;;;1.20;;
44130;SDS011;29792;48.726;9.248;2023-04-25T10:39:36;2.42;;;1.45;;
44130;SDS011;29792;48.726;9.248;2023-04-25T10:42:04;3.63;;;1.52;;
44130;SDS011;29792;48.726;9.248;2023-04-25T10:44:30;0.90;;;0.70;;
44130;SDS011;29792;48.726;9.248;2023-04-25T10:46:56;1.88;;;0.93;;
44130;SDS011;29792;48.726;9.248;2023-04-25T10:49:33;1.10;;;1.00;;
44130;SDS011;29792;48.726;9.248;2023-04-25T10:52:11;1.60;;;1.15;;
44130;SDS011;29792;48.726;9.248;2023-04-25T10:54:54;0.73;;;0.70;;
44130;SDS011;29792;48.726;9.248;2023-04-25T10:57:37;0.95;;;0.70;;
44130;SDS011;29792;48.726;9.248;2023-04-25T11:00:15;1.65;;;0.82;;
44130;SDS011;29792;48.726;9.248;2023-04-25T11:02:43;1.20;;;0.95;;
44130;SDS011;29792;48.726;9.248;2023-04-25T11:05:10;1.95;;;1.35;;
44130;SDS011;29792;48.726;9.248;2023-04-25T11:07:45;0.70;;;0.70;;
44130;SDS011;29792;48.726;9.248;2023-04-25T11:10:29;1.45;;;1.25;;
44130;SDS011;29792;48.726;9.248;2023-04-25T11:12:56;1.13;;;0.93;;
44130;SDS011;29792;48.726;9.248;2023-04-25T11:15:27;1.27;;;1.17;;
44130;SDS011;29792;48.726;9.248;2023-04-25T11:17:53;3.03;;;2.70;;
44130;SDS011;29792;48.726;9.248;2023-04-25T11:20:20;3.28;;;2.70;;
44130;SDS011;29792;48.726;9.248;2023-04-25T11:22:46;5.45;;;2.38;;
44130;SDS011;29792;48.726;9.248;2023-04-25T11:25:13;2.08;;;1.55;;
44130;SDS011;29792;48.726;9.248;2023-04-25T11:30:16;2.50;;;1.60;;
44130;SDS011;29792;48.726;9.248;2023-04-25T11:32:41;1.50;;;1.30;;
44130;SDS011;29792;48.726;9.248;2023-04-25T11:35:08;2.28;;;1.25;;
44130;SDS011;29792;48.726;9.248;2023-04-25T11:37:34;1.38;;;1.20;;
44130;SDS011;29792;48.726;9.248;2023-04-25T11:40:00;2.42;;;1.55;;
44130;SDS011;29792;48.726;9.248;2023-04-25T11:42:25;1.40;;;0.85;;
44130;SDS011;29792;48.726;9.248;2023-04-25T11:44:51;2.67;;;1.63;;
44130;SDS011;29792;48.726;9.248;2023-04-25T11:47:17;2.72;;;1.50;;
44130;SDS011;29792;48.726;9.248;2023-04-25T11:49:42;3.13;;;1.90;;
44130;SDS011;29792;48.726;9.248;2023-04-25T11:52:07;3.05;;;1.83;;
44130;SDS011;29792;48.726;9.248;2023-04-25T11:54:35;2.13;;;1.70;;
44130;SDS011;29792;48.726;9.248;2023-04-25T11:57:01;2.50;;;1.60;;
44130;SDS011;29792;48.726;9.248;2023-04-25T11:59:26;5.93;;;2.97;;
44130;SDS011;29792;48.726;9.248;2023-04-25T12:01:52;2.13;;;1.83;;
44130;SDS011;29792;48.726;9.248;2023-04-25T12:04:18;3.45;;;2.15;;
44130;SDS011;29792;48.726;9.248;2023-04-25T12:06:48;3.00;;;2.00;;
44130;SDS011;29792;48.726;9.248;2023-04-25T12:09:16;2.50;;;1.90;;
44130;SDS011;29792;48.726;9.248;2023-04-25T12:11:56;3.03;;;2.42;;
44130;SDS011;29792;48.726;9.248;2023-04-25T12:14:29;2.70;;;1.95;;
44130;SDS011;29792;48.726;9.248;2023-04-25T12:16:58;2.17;;;1.98;;
44130;SDS011;29792;48.726;9.248;2023-04-25T12:19:24;3.35;;;2.65;;
44130;SDS011;29792;48.726;9.248;2023-04-25T12:21:51;4.53;;;3.45;;
44130;SDS011;29792;48.726;9.248;2023-04-25T12:24:17;3.90;;;3.33;;
44130;SDS011;29792;48.726;9.248;2023-04-25T12:27:03;4.13;;;3.50;;
44130;SDS011;29792;48.726;9.248;2023-04-25T12:29:33;4.43;;;3.92;;
44130;SDS011;29792;48.726;9.248;2023-04-25T12:31:59;4.47;;;3.88;;
44130;SDS011;29792;48.726;9.248;2023-04-25T12:34:26;4.15;;;3.67;;
44130;SDS011;29792;48.726;9.248;2023-04-25T12:36:52;5.30;;;3.70;;
44130;SDS011;29792;48.726;9.248;2023-04-25T12:39:21;4.95;;;3.65;;
44130;SDS011;29792;48.726;9.248;2023-04-25T12:41:48;4.35;;;3.95;;
44130;SDS011;29792;48.726;9.248;2023-04-25T12:44:13;5.20;;;4.20;;
44130;SDS011;29792;48.726;9.248;2023-04-25T12:46:39;6.47;;;3.97;;
44130;SDS011;29792;48.726;9.248;2023-04-25T12:49:05;5.32;;;4.60;;
44130;SDS011;29792;48.726;9.248;2023-04-25T12:51:32;4.63;;;3.97;;
44130;SDS011;29792;48.726;9.248;2023-04-25T12:54:01;6.68;;;5.07;;
44130;SDS011;29792;48.726;9.248;2023-04-25T12:56:27;4.32;;;3.92;;
44130;SDS011;29792;48.726;9.248;2023-04-25T12:58:52;5.10;;;4.15;;
44130;SDS011;29792;48.726;9.248;2023-04-25T13:01:18;3.75;;;3.15;;
44130;SDS011;29792;48.726;9.248;2023-04-25T13:03:44;4.65;;;3.83;;
44130;SDS011;29792;48.726;9.248;2023-04-25T13:06:09;5.88;;;4.63;;
44130;SDS011;29792;48.726;9.248;2023-04-25T13:08:35;4.57;;;4.18;;
44130;SDS011;29792;48.726;9.248;2023-04-25T13:11:01;4.78;;;4.07;;
44130;SDS011;29792;48.726;9.248;2023-04-25T13:13:27;4.35;;;3.95;;
44130;SDS011;29792;48.726;9.248;2023-04-25T13:15:53;4.55;;;4.10;;
44130;SDS011;29792;48.726;9.248;2023-04-25T13:18:18;7.43;;;4.18;;
44130;SDS011;29792;48.726;9.248;2023-04-25T13:20:44;4.22;;;3.80;;
44130;SDS011;29792;48.726;9.248;2023-04-25T13:23:11;4.72;;;3.78;;
44130;SDS011;29792;48.726;9.248;2023-04-25T13:25:36;3.70;;;2.95;;
44130;SDS011;29792;48.726;9.248;2023-04-25T13:28:01;3.78;;;3.38;;
44130;SDS011;29792;48.726;9.248;2023-04-25T13:30:27;4.78;;;3.70;;
44130;SDS011;29792;48.726;9.248;2023-04-25T13:32:53;5.45;;;4.00;;
44130;SDS011;29792;48.726;9.248;2023-04-25T13:35:21;5.20;;;3.80;;
44130;SDS011;29792;48.726;9.248;2023-04-25T13:37:46;6.80;;;3.85;;
44130;SDS011;29792;48.726;9.248;2023-04-25T13:40:11;4.05;;;2.88;;
44130;SDS011;29792;48.726;9.248;2023-04-25T13:42:37;5.53;;;3.63;;
44130;SDS011;29792;48.726;9.248;2023-04-25T13:45:03;5.82;;;3.78;;
44130;SDS011;29792;48.726;9.248;2023-04-25T13:47:29;5.57;;;3.90;;
44130;SDS011;29792;48.726;9.248;2023-04-25T13:49:55;6.32;;;4.53;;
44130;SDS011;29792;48.726;9.248;2023-04-25T13:52:21;3.85;;;3.50;;
44130;SDS011;29792;48.726;9.248;2023-04-25T13:54:46;4.13;;;3.72;;
44130;SDS011;29792;48.726;9.248;2023-04-25T13:57:11;6.88;;;4.93;;
44130;SDS011;29792;48.726;9.248;2023-04-25T13:59:37;9.57;;;4.25;;
44130;SDS011;29792;48.726;9.248;2023-04-25T14:02:03;6.07;;;4.60;;
44130;SDS011;29792;48.726;9.248;2023-04-25T14:04:28;8.52;;;4.93;;
44130;SDS011;29792;48.726;9.248;2023-04-25T14:06:54;5.80;;;5.13;;
44130;SDS011;29792;48.726;9.248;2023-04-25T14:09:20;6.05;;;4.90;;
44130;SDS011;29792;48.726;9.248;2023-04-25T14:11:50;6.43;;;5.75;;
44130;SDS011;29792;48.726;9.248;2023-04-25T14:14:15;6.05;;;5.43;;
44130;SDS011;29792;48.726;9.248;2023-04-25T14:16:41;8.30;;;5.20;;
44130;SDS011;29792;48.726;9.248;2023-04-25T14:19:06;6.57;;;5.88;;
44130;SDS011;29792;48.726;9.248;2023-04-25T14:21:31;7.53;;;5.93;;
44130;SDS011;29792;48.726;9.248;2023-04-25T14:23:58;6.20;;;5.60;;
44130;SDS011;29792;48.726;9.248;2023-04-25T14:26:23;7.05;;;5.95;;
44130;SDS011;29792;48.726;9.248;2023-04-25T14:28:49;6.78;;;5.22;;
44130;SDS011;29792;48.726;9.248;2023-04-25T14:31:15;5.95;;;5.35;;
44130;SDS011;29792;48.726;9.248;2023-04-25T14:33:41;8.77;;;6.97;;
44130;SDS011;29792;48.726;9.248;2023-04-25T14:36:07;7.20;;;5.88;;
44130;SDS011;29792;48.726;9.248;2023-04-25T14:38:32;5.90;;;5.03;;
44130;SDS011;29792;48.726;9.248;2023-04-25T14:40:58;6.43;;;5.03;;
44130;SDS011;29792;48.726;9.248;2023-04-25T14:43:23;6.47;;;5.05;;
44130;SDS011;29792;48.726;9.248;2023-04-25T14:45:48;5.55;;;5.03;;
44130;SDS011;29792;48.726;9.248;2023-04-25T14:48:14;6.07;;;4.90;;